Time;durP1;ratioP1;P1;durP2;ratioP2;P2;SDS_P1;SDS_P2;PMS_P1;PMS_P2;Temp;Humidity;BMP_temperature;BMP_pressure;BME280_temperature;BME280_humidity;BME280_pressure;Samples;Min_cycle;Max_cycle;Signal;HPM_P1;HPM_P2
2023/01/30 00:01:57;;;;;;;1999.90;999.90;;;;;;;;;;5056437;28;20081;-71
2023/01/30 00:04:25;;;;;;;1999.90;999.90;;;;;;;;;;5063798;28;20041;-70
2023/01/30 00:06:52;;;;;;;1999.90;999.90;;;;;;;;;;5061074;28;20106;-71
2023/01/30 00:09:18;;;;;;;1999.90;999.90;;;;;;;;;;5058370;28;20045;-70
2023/01/30 00:11:45;;;;;;;1999.90;999.90;;;;;;;;;;5057520;28;20106;-70
2023/01/30 00:14:12;;;;;;;1999.90;999.90;;;;;;;;;;5052727;28;20051;-70
2023/01/30 00:16:38;;;;;;;1999.90;999.90;;;;;;;;;;5063514;28;20052;-70
2023/01/30 00:19:05;;;;;;;1999.90;999.90;;;;;;;;;;5064855;28;20040;-70
2023/01/30 00:21:33;;;;;;;1999.90;999.90;;;;;;;;;;5060574;28;20492;-70
2023/01/30 00:23:59;;;;;;;1999.90;999.90;;;;;;;;;;5060369;28;20045;-70
2023/01/30 00:26:26;;;;;;;1999.90;999.90;;;;;;;;;;5066206;28;20523;-70
2023/01/30 00:28:52;;;;;;;1999.90;999.90;;;;;;;;;;5064086;28;20099;-70
2023/01/30 00:31:19;;;;;;;1999.90;999.90;;;;;;;;;;5061413;28;20106;-70
2023/01/30 00:33:45;;;;;;;1999.90;999.90;;;;;;;;;;5051476;28;20048;-70
2023/01/30 00:36:13;;;;;;;1999.90;999.90;;;;;;;;;;5059792;28;20076;-71
2023/01/30 00:38:41;;;;;;;1999.90;999.90;;;;;;;;;;5057809;28;20072;-70
2023/01/30 00:41:09;;;;;;;1999.90;999.90;;;;;;;;;;5054302;28;20053;-70
2023/01/30 00:49:05;;;;;;;1999.90;999.90;;;;;;;;;;5061980;28;20053;-70
2023/01/30 00:51:32;;;;;;;1999.90;999.90;;;;;;;;;;5059289;28;20049;-70
2023/01/30 00:54:00;;;;;;;1999.90;999.90;;;;;;;;;;5056145;28;20053;-70
2023/01/30 00:56:26;;;;;;;1999.90;999.90;;;;;;;;;;5058678;28;20225;-71
2023/01/30 00:58:53;;;;;;;1999.90;999.90;;;;;;;;;;5059116;28;20045;-70
2023/01/30 01:01:19;;;;;;;1999.90;999.90;;;;;;;;;;5062382;28;20080;-70
2023/01/30 01:03:46;;;;;;;1999.90;999.90;;;;;;;;;;5058319;28;20130;-71
2023/01/30 01:06:12;;;;;;;1999.90;999.90;;;;;;;;;;5055988;28;20045;-70
2023/01/30 01:08:39;;;;;;;1999.90;999.90;;;;;;;;;;5055758;28;20497;-70
2023/01/30 01:11:07;;;;;;;1999.90;999.90;;;;;;;;;;5053728;28;20110;-70
2023/01/30 01:13:33;;;;;;;1999.90;999.90;;;;;;;;;;5050641;28;20741;-70
2023/01/30 01:16:00;;;;;;;1999.90;999.90;;;;;;;;;;5061750;28;20763;-70
2023/01/30 01:18:27;;;;;;;1999.90;999.90;;;;;;;;;;5064717;28;20110;-70
2023/01/30 01:20:53;;;;;;;1999.90;999.90;;;;;;;;;;5058504;28;20045;-70
2023/01/30 01:23:20;;;;;;;1999.90;999.90;;;;;;;;;;5057164;28;20625;-70
2023/01/30 01:25:46;;;;;;;1999.90;999.90;;;;;;;;;;5058898;28;20099;-70
2023/01/30 01:28:17;;;;;;;1999.90;999.90;;;;;;;;;;5052187;28;20153;-70
2023/01/30 01:30:43;;;;;;;1999.90;999.90;;;;;;;;;;5063126;28;20110;-71
2023/01/30 01:33:10;;;;;;;1999.90;999.90;;;;;;;;;;5060135;28;20053;-70
2023/01/30 01:35:40;;;;;;;1999.90;999.90;;;;;;;;;;5059448;28;20073;-70
2023/01/30 01:38:07;;;;;;;1999.90;999.90;;;;;;;;;;5064198;28;20076;-70
2023/01/30 01:43:20;;;;;;;1999.90;999.90;;;;;;;;;;5058170;28;20094;-70
2023/01/30 01:45:49;;;;;;;1999.90;999.90;;;;;;;;;;5059868;28;20048;-70
2023/01/30 01:48:20;;;;;;;1999.90;999.90;;;;;;;;;;5063701;28;20080;-70
2023/01/30 01:50:49;;;;;;;1999.90;999.90;;;;;;;;;;5064449;28;20052;-70
2023/01/30 01:53:17;;;;;;;1999.90;999.90;;;;;;;;;;5062440;28;20064;-71
2023/01/30 01:55:47;;;;;;;1999.90;999.90;;;;;;;;;;5061601;28;20098;-70
2023/01/30 01:58:16;;;;;;;1999.90;999.90;;;;;;;;;;5056014;28;20106;-70
2023/01/30 02:00:44;;;;;;;1999.90;999.90;;;;;;;;;;5061960;28;20122;-70
2023/01/30 02:03:15;;;;;;;1999.90;999.90;;;;;;;;;;5080889;22;20086;-74
2023/01/30 02:05:44;;;;;;;1999.90;999.90;;;;;;;;;;5001760;28;20109;-71
2023/01/30 02:08:12;;;;;;;1999.90;999.90;;;;;;;;;;4997175;28;20081;-72
2023/01/30 02:10:45;;;;;;;1999.90;999.90;;;;;;;;;;4994769;28;20085;-74
2023/01/30 02:13:12;;;;;;;1999.90;999.90;;;;;;;;;;4997995;28;20585;-71
2023/01/30 02:15:39;;;;;;;1999.90;999.90;;;;;;;;;;5002156;28;20113;-71
2023/01/30 02:18:07;;;;;;;1999.90;999.90;;;;;;;;;;4999855;28;20629;-72
2023/01/30 02:20:53;;;;;;;1999.90;999.90;;;;;;;;;;4996640;28;20073;-72
2023/01/30 02:23:25;;;;;;;;;;;;;;;;;;4991373;28;20050;-71
2023/01/30 02:26:23;;;;;;;1999.90;999.90;;;;;;;;;;5000744;28;19991;-72
2023/01/30 02:29:12;;;;;;;1999.90;999.90;;;;;;;;;;5007505;28;20081;-71
2023/01/30 02:31:43;;;;;;;1999.90;999.90;;;;;;;;;;5004612;28;20053;-73
2023/01/30 02:34:22;;;;;;;1999.90;999.90;;;;;;;;;;5001103;28;20494;-72
2023/01/30 02:36:53;;;;;;;1999.90;999.90;;;;;;;;;;5002034;28;20058;-72
2023/01/30 02:39:28;;;;;;;1999.90;999.90;;;;;;;;;;5000441;28;20109;-70
2023/01/30 02:42:01;;;;;;;1999.90;999.90;;;;;;;;;;4998479;28;20106;-73
2023/01/30 02:44:31;;;;;;;1999.90;999.90;;;;;;;;;;4994633;28;20121;-71
2023/01/30 02:47:03;;;;;;;1999.90;999.90;;;;;;;;;;5002345;28;20066;-71
2023/01/30 02:49:32;;;;;;;1999.90;999.90;;;;;;;;;;4994358;28;20522;-70
2023/01/30 02:52:00;;;;;;;1999.90;999.90;;;;;;;;;;5002182;28;20780;-71
2023/01/30 02:54:26;;;;;;;1999.90;999.90;;;;;;;;;;4998888;28;20049;-71
2023/01/30 02:56:56;;;;;;;1999.90;999.90;;;;;;;;;;5003353;28;20050;-71
2023/01/30 02:59:27;;;;;;;1999.90;999.90;;;;;;;;;;5002673;28;20577;-71
2023/01/30 03:02:16;;;;;;;1999.90;999.90;;;;;;;;;;5004420;28;20046;-70
2023/01/30 03:04:55;;;;;;;1999.90;999.90;;;;;;;;;;4991303;28;20487;-71
2023/01/30 03:07:28;;;;;;;1999.90;999.90;;;;;;;;;;5001969;28;20329;-70
2023/01/30 03:10:01;;;;;;;1999.90;999.90;;;;;;;;;;4998552;28;20108;-72
2023/01/30 03:12:36;;;;;;;1999.90;999.90;;;;;;;;;;5003524;28;20125;-70
2023/01/30 03:15:06;;;;;;;1999.90;999.90;;;;;;;;;;5000120;28;20054;-70
2023/01/30 03:17:34;;;;;;;1999.90;999.90;;;;;;;;;;4997679;28;20073;-70
2023/01/30 03:20:01;;;;;;;1999.90;999.90;;;;;;;;;;4998259;28;20085;-73
2023/01/30 03:22:28;;;;;;;1999.90;999.90;;;;;;;;;;4995569;28;20101;-71
2023/01/30 03:24:54;;;;;;;1999.90;999.90;;;;;;;;;;4999014;28;20101;-72
2023/01/30 03:27:21;;;;;;;1999.90;999.90;;;;;;;;;;5002784;28;20499;-74
2023/01/30 03:29:48;;;;;;;1999.90;999.90;;;;;;;;;;4997175;28;20302;-71
2023/01/30 03:32:14;;;;;;;1999.90;999.90;;;;;;;;;;4999521;28;20054;-72
2023/01/30 03:34:42;;;;;;;1999.90;999.90;;;;;;;;;;4998836;28;20093;-71
2023/01/30 03:37:09;;;;;;;1999.90;999.90;;;;;;;;;;4992911;28;20130;-70
2023/01/30 03:39:36;;;;;;;1999.90;999.90;;;;;;;;;;5006864;28;20096;-73
2023/01/30 03:42:02;;;;;;;1999.90;999.90;;;;;;;;;;5004573;28;20089;-72
2023/01/30 03:44:29;;;;;;;1999.90;999.90;;;;;;;;;;5001156;28;20494;-71
2023/01/30 03:46:55;;;;;;;1999.90;999.90;;;;;;;;;;5003063;28;20088;-73
2023/01/30 03:49:22;;;;;;;1999.90;999.90;;;;;;;;;;4997247;28;20084;-71
2023/01/30 03:51:50;;;;;;;1999.90;999.90;;;;;;;;;;4995128;28;20133;-70
2023/01/30 03:54:16;;;;;;;1999.90;999.90;;;;;;;;;;5000412;28;20133;-72
2023/01/30 03:56:43;;;;;;;1999.90;999.90;;;;;;;;;;4993237;28;20141;-70
2023/01/30 03:59:09;;;;;;;1999.90;999.90;;;;;;;;;;5005154;28;20124;-71
2023/01/30 04:01:36;;;;;;;1999.90;999.90;;;;;;;;;;5008333;28;20137;-72
2023/01/30 04:04:02;;;;;;;1999.90;999.90;;;;;;;;;;5004521;28;20058;-70
2023/01/30 04:06:29;;;;;;;1999.90;999.90;;;;;;;;;;5000889;28;20606;-70
2023/01/30 04:08:57;;;;;;;1999.90;999.90;;;;;;;;;;4996665;28;20081;-72
2023/01/30 04:11:23;;;;;;;1999.90;999.90;;;;;;;;;;5009177;28;20077;-70
2023/01/30 04:13:50;;;;;;;1999.90;999.90;;;;;;;;;;5000871;28;20128;-70
2023/01/30 04:16:19;;;;;;;1999.90;999.90;;;;;;;;;;5003650;28;20050;-71
2023/01/30 04:18:45;;;;;;;1999.90;999.90;;;;;;;;;;5000417;28;20713;-71
2023/01/30 04:21:12;;;;;;;1999.90;999.90;;;;;;;;;;4998269;28;20554;-71
2023/01/30 04:23:39;;;;;;;1999.90;999.90;;;;;;;;;;4995554;28;20074;-71
2023/01/30 04:26:08;;;;;;;1999.90;999.90;;;;;;;;;;5001366;28;20133;-72
2023/01/30 04:28:35;;;;;;;1999.90;999.90;;;;;;;;;;4995432;28;20137;-70
2023/01/30 04:31:01;;;;;;;1999.90;999.90;;;;;;;;;;5001511;28;20078;-71
2023/01/30 04:33:28;;;;;;;1999.90;999.90;;;;;;;;;;4995958;28;20263;-71
2023/01/30 04:35:56;;;;;;;1999.90;999.90;;;;;;;;;;5004659;28;20140;-73
2023/01/30 04:38:23;;;;;;;1999.90;999.90;;;;;;;;;;4996263;28;20133;-71
2023/01/30 04:40:50;;;;;;;1999.90;999.90;;;;;;;;;;4993178;28;20128;-70
2023/01/30 04:43:18;;;;;;;1999.90;999.90;;;;;;;;;;4999689;28;20042;-72
2023/01/30 04:45:45;;;;;;;1999.90;999.90;;;;;;;;;;4992430;28;20078;-70
2023/01/30 04:48:12;;;;;;;1999.90;999.90;;;;;;;;;;4997161;28;20070;-72
2023/01/30 04:50:38;;;;;;;1999.90;999.90;;;;;;;;;;4996861;28;20097;-71
2023/01/30 04:53:05;;;;;;;1999.90;999.90;;;;;;;;;;4992106;28;20133;-71
2023/01/30 04:55:31;;;;;;;1999.90;999.90;;;;;;;;;;4998219;28;20141;-70
2023/01/30 04:57:58;;;;;;;1999.90;999.90;;;;;;;;;;4999162;28;20473;-71
2023/01/30 05:00:26;;;;;;;1999.90;999.90;;;;;;;;;;4998048;28;20733;-71
2023/01/30 05:02:54;;;;;;;1999.90;999.90;;;;;;;;;;4999416;28;20077;-70
2023/01/30 05:05:21;;;;;;;1999.90;999.90;;;;;;;;;;4996532;28;20086;-73
2023/01/30 05:07:47;;;;;;;1999.90;999.90;;;;;;;;;;4998345;28;20140;-71
2023/01/30 05:10:14;;;;;;;1999.90;999.90;;;;;;;;;;5001816;28;20134;-71
2023/01/30 05:12:41;;;;;;;1999.90;999.90;;;;;;;;;;5000717;28;20077;-72
2023/01/30 05:15:08;;;;;;;1999.90;999.90;;;;;;;;;;5000423;28;20127;-72
2023/01/30 05:17:36;;;;;;;1999.90;999.90;;;;;;;;;;5002047;28;20073;-71
2023/01/30 05:20:03;;;;;;;1999.90;999.90;;;;;;;;;;5001234;28;20129;-71
2023/01/30 05:22:29;;;;;;;1999.90;999.90;;;;;;;;;;4999619;28;20077;-71
2023/01/30 05:24:55;;;;;;;1999.90;999.90;;;;;;;;;;4995900;28;20089;-71
2023/01/30 05:27:22;;;;;;;1999.90;999.90;;;;;;;;;;5033152;23;20513;-73
2023/01/30 05:29:48;;;;;;;1999.90;999.90;;;;;;;;;;5001461;28;20081;-70
2023/01/30 05:32:17;;;;;;;1999.90;999.90;;;;;;;;;;4998665;28;20095;-72
2023/01/30 05:34:45;;;;;;;1999.90;999.90;;;;;;;;;;4995920;28;20136;-72
2023/01/30 05:37:12;;;;;;;1999.90;999.90;;;;;;;;;;4997949;28;20145;-71
2023/01/30 05:39:39;;;;;;;1999.90;999.90;;;;;;;;;;4998898;28;20069;-72
2023/01/30 05:42:05;;;;;;;1999.90;999.90;;;;;;;;;;4998709;28;20169;-72
2023/01/30 05:44:32;;;;;;;1999.90;999.90;;;;;;;;;;4999927;28;20133;-72
2023/01/30 05:46:58;;;;;;;1999.90;999.90;;;;;;;;;;4996878;28;20553;-71
2023/01/30 05:49:25;;;;;;;1999.90;999.90;;;;;;;;;;4996582;28;20078;-72
2023/01/30 05:51:53;;;;;;;1999.90;999.90;;;;;;;;;;4995528;28;20192;-72
2023/01/30 05:54:19;;;;;;;1999.90;999.90;;;;;;;;;;4995750;28;20085;-72
2023/01/30 05:56:48;;;;;;;1999.90;999.90;;;;;;;;;;4997187;28;20153;-73
2023/01/30 05:59:15;;;;;;;1999.90;999.90;;;;;;;;;;4994186;28;20133;-72
2023/01/30 06:01:42;;;;;;;1999.90;999.90;;;;;;;;;;4995430;28;20046;-70
2023/01/30 06:04:08;;;;;;;1999.90;999.90;;;;;;;;;;4995291;28;20452;-73
2023/01/30 06:06:35;;;;;;;1999.90;999.90;;;;;;;;;;4994238;28;20137;-72
2023/01/30 06:09:03;;;;;;;1999.90;999.90;;;;;;;;;;4995305;28;20129;-71
2023/01/30 06:11:29;;;;;;;1999.90;999.90;;;;;;;;;;4994274;28;20588;-71
2023/01/30 06:13:56;;;;;;;1999.90;999.90;;;;;;;;;;4994409;28;20556;-72
2023/01/30 06:16:22;;;;;;;1999.90;999.90;;;;;;;;;;4994340;28;20078;-71
2023/01/30 06:18:49;;;;;;;1999.90;999.90;;;;;;;;;;4994258;28;20550;-71
2023/01/30 06:21:16;;;;;;;1999.90;999.90;;;;;;;;;;4992609;28;20082;-73
2023/01/30 06:23:43;;;;;;;1999.90;999.90;;;;;;;;;;4991264;28;20070;-71
2023/01/30 06:26:11;;;;;;;1999.90;999.90;;;;;;;;;;4995965;28;20089;-69
2023/01/30 06:28:38;;;;;;;1999.90;999.90;;;;;;;;;;4996971;28;20073;-69
2023/01/30 06:31:06;;;;;;;1999.90;999.90;;;;;;;;;;4997158;28;20080;-70
2023/01/30 06:33:32;;;;;;;1999.90;999.90;;;;;;;;;;5000464;28;20073;-70
2023/01/30 06:35:59;;;;;;;1999.90;999.90;;;;;;;;;;4997056;28;20137;-69
2023/01/30 06:38:25;;;;;;;1999.90;999.90;;;;;;;;;;4992550;28;20475;-72
2023/01/30 06:40:52;;;;;;;1999.90;999.90;;;;;;;;;;4994624;28;20125;-71
2023/01/30 06:43:20;;;;;;;1999.90;999.90;;;;;;;;;;4997578;28;20438;-69
2023/01/30 06:45:46;;;;;;;1999.90;999.90;;;;;;;;;;4999624;28;20512;-70
2023/01/30 06:48:13;;;;;;;1999.90;999.90;;;;;;;;;;4999750;28;20084;-70
2023/01/30 06:50:39;;;;;;;1999.90;999.90;;;;;;;;;;4994724;28;20129;-70
2023/01/30 06:53:07;;;;;;;1999.90;999.90;;;;;;;;;;4996772;28;20100;-70
2023/01/30 06:55:35;;;;;;;1999.90;999.90;;;;;;;;;;4997858;28;20137;-69
2023/01/30 06:58:03;;;;;;;1999.90;999.90;;;;;;;;;;5000219;28;20050;-70
2023/01/30 07:00:31;;;;;;;1999.90;999.90;;;;;;;;;;4996560;28;20133;-70
2023/01/30 07:02:58;;;;;;;1999.90;999.90;;;;;;;;;;4997925;28;20080;-69
2023/01/30 07:05:25;;;;;;;1999.90;999.90;;;;;;;;;;4997122;28;20050;-71
2023/01/30 07:07:52;;;;;;;1999.90;999.90;;;;;;;;;;4997273;28;20506;-69
2023/01/30 07:10:18;;;;;;;1999.90;999.90;;;;;;;;;;4997342;28;20502;-70
2023/01/30 07:12:45;;;;;;;1999.90;999.90;;;;;;;;;;4996914;28;20092;-70
2023/01/30 07:15:12;;;;;;;1999.90;999.90;;;;;;;;;;4999105;28;20121;-70
2023/01/30 07:17:41;;;;;;;1999.90;999.90;;;;;;;;;;5000999;28;20085;-70
2023/01/30 07:20:10;;;;;;;1999.90;999.90;;;;;;;;;;5000435;28;20465;-70
2023/01/30 07:22:36;;;;;;;1999.90;999.90;;;;;;;;;;4997796;28;20054;-70
2023/01/30 07:25:04;;;;;;;1999.90;999.90;;;;;;;;;;4999209;28;20463;-71
2023/01/30 07:27:30;;;;;;;1999.90;999.90;;;;;;;;;;4997617;28;20200;-71
2023/01/30 07:29:57;;;;;;;1999.90;999.90;;;;;;;;;;5002345;28;20172;-70
2023/01/30 07:32:23;;;;;;;1999.90;999.90;;;;;;;;;;5002064;28;20149;-70
2023/01/30 07:34:51;;;;;;;1999.90;999.90;;;;;;;;;;5001148;28;20125;-69
2023/01/30 07:37:18;;;;;;;1999.90;999.90;;;;;;;;;;5001502;28;20150;-72
2023/01/30 07:39:44;;;;;;;1999.90;999.90;;;;;;;;;;5000090;28;20140;-70
2023/01/30 07:42:11;;;;;;;1999.90;999.90;;;;;;;;;;5000680;28;20069;-71
2023/01/30 07:44:37;;;;;;;1999.90;999.90;;;;;;;;;;5000869;28;20129;-70
2023/01/30 07:47:04;;;;;;;1999.90;999.90;;;;;;;;;;4997533;28;20136;-71
2023/01/30 07:49:30;;;;;;;1999.90;999.90;;;;;;;;;;5000823;28;20085;-70
2023/01/30 07:51:58;;;;;;;1999.90;999.90;;;;;;;;;;5000464;28;20137;-71
2023/01/30 07:54:25;;;;;;;1999.90;999.90;;;;;;;;;;5002113;28;20129;-72
2023/01/30 07:56:52;;;;;;;1999.90;999.90;;;;;;;;;;5002794;28;20062;-70
2023/01/30 07:59:18;;;;;;;1999.90;999.90;;;;;;;;;;4998305;28;20142;-69
2023/01/30 08:01:44;;;;;;;1999.90;999.90;;;;;;;;;;4999777;28;20128;-69
2023/01/30 08:04:11;;;;;;;1999.90;999.90;;;;;;;;;;4999471;28;20137;-70
2023/01/30 08:06:38;;;;;;;1999.90;999.90;;;;;;;;;;4998541;28;20129;-70
2023/01/30 08:09:07;;;;;;;1999.90;999.90;;;;;;;;;;4998859;28;20125;-70
2023/01/30 08:11:34;;;;;;;1999.90;999.90;;;;;;;;;;4998536;28;20128;-69
2023/01/30 08:14:00;;;;;;;1999.90;999.90;;;;;;;;;;5000126;28;20129;-70
2023/01/30 08:16:27;;;;;;;1999.90;999.90;;;;;;;;;;4998770;28;20604;-70
2023/01/30 08:18:53;;;;;;;1999.90;999.90;;;;;;;;;;4996400;28;20077;-70
2023/01/30 08:21:19;;;;;;;1999.90;999.90;;;;;;;;;;4997090;28;20132;-69
2023/01/30 08:23:46;;;;;;;1999.90;999.90;;;;;;;;;;4996057;28;20137;-70
2023/01/30 08:26:14;;;;;;;1999.90;999.90;;;;;;;;;;4997128;28;20089;-69
2023/01/30 08:28:40;;;;;;;1999.90;999.90;;;;;;;;;;4995862;28;20082;-71
2023/01/30 08:31:09;;;;;;;1999.90;999.90;;;;;;;;;;4995626;28;20138;-71
2023/01/30 08:33:36;;;;;;;1999.90;999.90;;;;;;;;;;4994030;28;20065;-70
2023/01/30 08:36:03;;;;;;;1999.90;999.90;;;;;;;;;;4996260;28;20078;-69
2023/01/30 08:38:29;;;;;;;1999.90;999.90;;;;;;;;;;4999354;28;20173;-69
2023/01/30 08:40:58;;;;;;;1999.90;999.90;;;;;;;;;;4999124;28;20517;-71
2023/01/30 08:43:26;;;;;;;1999.90;999.90;;;;;;;;;;5001363;28;20042;-69
2023/01/30 08:45:53;;;;;;;1999.90;999.90;;;;;;;;;;5000691;28;20140;-70
2023/01/30 08:48:20;;;;;;;1999.90;999.90;;;;;;;;;;4997480;28;20137;-70
2023/01/30 08:50:46;;;;;;;1999.90;999.90;;;;;;;;;;4997532;28;20503;-69
2023/01/30 08:53:13;;;;;;;1999.90;999.90;;;;;;;;;;4999862;28;20150;-70
2023/01/30 08:55:39;;;;;;;1999.90;999.90;;;;;;;;;;5001282;28;20475;-69
2023/01/30 08:58:06;;;;;;;1999.90;999.90;;;;;;;;;;5001559;28;20145;-70
2023/01/30 09:00:34;;;;;;;1999.90;999.90;;;;;;;;;;4999331;28;20134;-70
2023/01/30 09:03:01;;;;;;;1999.90;999.90;;;;;;;;;;4995295;28;20077;-71
2023/01/30 09:05:28;;;;;;;1999.90;999.90;;;;;;;;;;4998112;28;20138;-70
2023/01/30 09:07:55;;;;;;;1999.90;999.90;;;;;;;;;;5000382;28;20049;-69
2023/01/30 09:10:23;;;;;;;1999.90;999.90;;;;;;;;;;4997940;28;20160;-71
2023/01/30 09:12:49;;;;;;;1999.90;999.90;;;;;;;;;;4999198;28;20741;-69
2023/01/30 09:15:16;;;;;;;1999.90;999.90;;;;;;;;;;4997901;28;20085;-70
2023/01/30 09:17:44;;;;;;;1999.90;999.90;;;;;;;;;;4998064;28;20086;-70
2023/01/30 09:20:12;;;;;;;1999.90;999.90;;;;;;;;;;4998945;28;20054;-71
2023/01/30 09:22:38;;;;;;;1999.90;999.90;;;;;;;;;;4996188;28;20134;-70
2023/01/30 09:25:06;;;;;;;1999.90;999.90;;;;;;;;;;4995353;28;20141;-70
2023/01/30 09:27:33;;;;;;;1999.90;999.90;;;;;;;;;;4996669;28;20577;-69
2023/01/30 09:30:00;;;;;;;1999.90;999.90;;;;;;;;;;4998787;28;20046;-70
2023/01/30 09:32:26;;;;;;;1999.90;999.90;;;;;;;;;;4997528;28;20148;-70
2023/01/30 09:34:54;;;;;;;1999.90;999.90;;;;;;;;;;4997820;28;20125;-69
2023/01/30 09:37:21;;;;;;;1999.90;999.90;;;;;;;;;;4997010;28;20141;-71
2023/01/30 09:39:47;;;;;;;1999.90;999.90;;;;;;;;;;4997128;28;20459;-69
2023/01/30 09:42:30;;;;;;;1999.90;999.90;;;;;;;;;;4999337;28;20133;-70
2023/01/30 09:45:08;;;;;;;1999.90;999.90;;;;;;;;;;4996022;28;20562;-71
2023/01/30 09:47:40;;;;;;;1999.90;999.90;;;;;;;;;;4997061;28;20133;-70
2023/01/30 09:50:18;;;;;;;1999.90;999.90;;;;;;;;;;4998194;28;20050;-70
2023/01/30 09:52:53;;;;;;;1999.90;999.90;;;;;;;;;;4999021;28;20133;-69
2023/01/30 09:55:22;;;;;;;1999.90;999.90;;;;;;;;;;4998113;28;20458;-70
2023/01/30 09:57:49;;;;;;;1999.90;999.90;;;;;;;;;;4994046;28;20137;-69
2023/01/30 10:00:21;;;;;;;1999.90;999.90;;;;;;;;;;4996477;28;20042;-70
2023/01/30 10:02:51;;;;;;;1999.90;999.90;;;;;;;;;;4997865;28;20730;-68
2023/01/30 10:05:19;;;;;;;1999.90;999.90;;;;;;;;;;4999360;28;20562;-68
2023/01/30 10:07:59;;;;;;;1999.90;999.90;;;;;;;;;;4998947;28;20054;-68
2023/01/30 10:10:38;;;;;;;1999.90;999.90;;;;;;;;;;4996969;28;20046;-69
2023/01/30 10:13:10;;;;;;;1999.90;999.90;;;;;;;;;;4999233;28;20164;-70
2023/01/30 10:15:44;;;;;;;1999.90;999.90;;;;;;;;;;4995993;28;20081;-69
2023/01/30 10:18:27;;;;;;;1999.90;999.90;;;;;;;;;;4998216;28;20104;-70
2023/01/30 10:21:05;;;;;;;1999.90;999.90;;;;;;;;;;4997040;28;20129;-69
2023/01/30 10:23:46;;;;;;;1999.90;999.90;;;;;;;;;;4996913;28;20151;-69
2023/01/30 10:26:14;;;;;;;1999.90;999.90;;;;;;;;;;4997831;28;20451;-68
2023/01/30 10:28:45;;;;;;;1999.90;999.90;;;;;;;;;;4995553;28;20090;-69
2023/01/30 10:31:14;;;;;;;1999.90;999.90;;;;;;;;;;4995362;28;20511;-71
2023/01/30 10:33:44;;;;;;;1999.90;999.90;;;;;;;;;;4996403;28;20078;-68
2023/01/30 10:36:14;;;;;;;1999.90;999.90;;;;;;;;;;4996024;28;20061;-70
2023/01/30 10:38:44;;;;;;;1999.90;999.90;;;;;;;;;;4994897;28;20133;-70
2023/01/30 10:41:19;;;;;;;1999.90;999.90;;;;;;;;;;4992080;28;20583;-70
2023/01/30 10:43:49;;;;;;;1999.90;999.90;;;;;;;;;;4992938;28;20134;-70
2023/01/30 10:46:26;;;;;;;1999.90;999.90;;;;;;;;;;4997180;28;20395;-70
2023/01/30 10:48:56;;;;;;;1999.90;999.90;;;;;;;;;;5000626;28;20112;-70
2023/01/30 10:51:34;;;;;;;1999.90;999.90;;;;;;;;;;5001404;28;20129;-68
2023/01/30 10:54:03;;;;;;;1999.90;999.90;;;;;;;;;;4999550;28;20568;-71
2023/01/30 10:56:35;;;;;;;1999.90;999.90;;;;;;;;;;5004106;28;20078;-70
2023/01/30 10:59:06;;;;;;;1999.90;999.90;;;;;;;;;;4998671;28;20092;-70
2023/01/30 11:01:38;;;;;;;1999.90;999.90;;;;;;;;;;4998872;28;20081;-70
2023/01/30 11:04:19;;;;;;;1999.90;999.90;;;;;;;;;;4999829;28;20088;-69
2023/01/30 11:06:47;;;;;;;1999.90;999.90;;;;;;;;;;5003432;28;20046;-71
2023/01/30 11:09:14;;;;;;;1999.90;999.90;;;;;;;;;;5002095;28;20574;-69
2023/01/30 11:11:48;;;;;;;1999.90;999.90;;;;;;;;;;5001282;28;20070;-69
2023/01/30 11:14:14;;;;;;;1999.90;999.90;;;;;;;;;;4999678;28;20142;-69
2023/01/30 11:16:43;;;;;;;1999.90;999.90;;;;;;;;;;5000770;28;20141;-69
2023/01/30 11:19:10;;;;;;;1999.90;999.90;;;;;;;;;;5003515;28;20086;-68
2023/01/30 11:21:37;;;;;;;1999.90;999.90;;;;;;;;;;4999419;28;20133;-70
2023/01/30 11:24:15;;;;;;;1999.90;999.90;;;;;;;;;;5002353;28;20053;-68
2023/01/30 11:26:42;;;;;;;1999.90;999.90;;;;;;;;;;4997681;28;20153;-69
2023/01/30 11:29:17;;;;;;;1999.90;999.90;;;;;;;;;;4999985;28;20569;-69
2023/01/30 11:31:49;;;;;;;1999.90;999.90;;;;;;;;;;5000120;28;20121;-71
2023/01/30 11:34:17;;;;;;;1999.90;999.90;;;;;;;;;;4997880;28;20153;-70
2023/01/30 11:36:45;;;;;;;1999.90;999.90;;;;;;;;;;4994930;28;20129;-69
2023/01/30 11:39:23;;;;;;;1999.90;999.90;;;;;;;;;;4997840;28;20066;-70
2023/01/30 11:42:03;;;;;;;1999.90;999.90;;;;;;;;;;4998284;28;20132;-69
2023/01/30 11:44:32;;;;;;;1999.90;999.90;;;;;;;;;;4998959;28;20109;-69
2023/01/30 11:47:00;;;;;;;1999.90;999.90;;;;;;;;;;4997079;28;20146;-69
2023/01/30 11:49:33;;;;;;;1999.90;999.90;;;;;;;;;;4997864;28;20085;-70
2023/01/30 11:52:00;;;;;;;1999.90;999.90;;;;;;;;;;5000943;28;20520;-70
2023/01/30 11:54:30;;;;;;;1999.90;999.90;;;;;;;;;;5000442;28;20137;-70
2023/01/30 11:56:58;;;;;;;1999.90;999.90;;;;;;;;;;4999664;28;20716;-70
2023/01/30 11:59:26;;;;;;;1999.90;999.90;;;;;;;;;;4998015;28;20133;-69
2023/01/30 12:02:02;;;;;;;1999.90;999.90;;;;;;;;;;4999677;28;20142;-70
2023/01/30 12:04:28;;;;;;;1999.90;999.90;;;;;;;;;;4998985;28;20142;-72
2023/01/30 12:07:05;;;;;;;1999.90;999.90;;;;;;;;;;4998740;28;20717;-70
2023/01/30 12:09:36;;;;;;;1999.90;999.90;;;;;;;;;;4997673;28;20509;-69
2023/01/30 12:12:04;;;;;;;1999.90;999.90;;;;;;;;;;4998936;28;20078;-71
2023/01/30 12:14:36;;;;;;;1999.90;999.90;;;;;;;;;;4998606;28;20553;-70
2023/01/30 12:17:11;;;;;;;1999.90;999.90;;;;;;;;;;4998106;28;20125;-70
2023/01/30 12:19:50;;;;;;;1999.90;999.90;;;;;;;;;;5002445;28;20141;-70
2023/01/30 12:22:21;;;;;;;1999.90;999.90;;;;;;;;;;4998029;28;20137;-70
2023/01/30 12:24:58;;;;;;;1999.90;999.90;;;;;;;;;;4998767;28;20126;-69
2023/01/30 12:27:30;;;;;;;1999.90;999.90;;;;;;;;;;4996737;28;20133;-69
2023/01/30 12:30:02;;;;;;;1999.90;999.90;;;;;;;;;;4998605;28;20149;-70
2023/01/30 12:32:31;;;;;;;1999.90;999.90;;;;;;;;;;4999128;28;20070;-70
2023/01/30 12:34:57;;;;;;;1999.90;999.90;;;;;;;;;;4998812;28;20136;-70
2023/01/30 12:37:35;;;;;;;1999.90;999.90;;;;;;;;;;4997962;28;20049;-70
2023/01/30 12:40:10;;;;;;;1999.90;999.90;;;;;;;;;;4996596;28;20074;-71
2023/01/30 12:42:55;;;;;;;1999.90;999.90;;;;;;;;;;4996568;28;20454;-70
2023/01/30 12:45:23;;;;;;;1999.90;999.90;;;;;;;;;;4997988;28;20134;-70
2023/01/30 12:48:06;;;;;;;1999.90;999.90;;;;;;;;;;4996503;28;20137;-70
2023/01/30 12:50:47;;;;;;;1999.90;999.90;;;;;;;;;;4995208;28;20133;-72
2023/01/30 12:53:24;;;;;;;1999.90;999.90;;;;;;;;;;4993330;28;20097;-71
2023/01/30 12:56:02;;;;;;;1999.90;999.90;;;;;;;;;;4997986;28;20157;-71
2023/01/30 12:58:32;;;;;;;1999.90;999.90;;;;;;;;;;4996800;28;20145;-70
2023/01/30 13:01:13;;;;;;;1999.90;999.90;;;;;;;;;;4998061;28;20587;-70
2023/01/30 13:03:43;;;;;;;1999.90;999.90;;;;;;;;;;5000488;28;20076;-70
2023/01/30 13:06:20;;;;;;;1999.90;999.90;;;;;;;;;;4998734;28;20073;-69
2023/01/30 13:08:54;;;;;;;1999.90;999.90;;;;;;;;;;5000196;28;20113;-72
2023/01/30 13:11:36;;;;;;;1999.90;999.90;;;;;;;;;;4995807;28;20078;-71
2023/01/30 13:14:10;;;;;;;1999.90;999.90;;;;;;;;;;4997842;28;20157;-70
2023/01/30 13:16:56;;;;;;;1999.90;999.90;;;;;;;;;;5000414;28;20079;-71
2023/01/30 13:19:29;;;;;;;1999.90;999.90;;;;;;;;;;5000892;28;20050;-71
2023/01/30 13:22:03;;;;;;;1999.90;999.90;;;;;;;;;;4996939;28;20050;-71
2023/01/30 13:24:41;;;;;;;1999.90;999.90;;;;;;;;;;4993417;28;20101;-70
2023/01/30 13:27:12;;;;;;;1999.90;999.90;;;;;;;;;;4997484;28;20140;-70
2023/01/30 13:29:40;;;;;;;1999.90;999.90;;;;;;;;;;4999298;28;20130;-72
2023/01/30 13:32:12;;;;;;;1999.90;999.90;;;;;;;;;;4998421;28;20134;-71
2023/01/30 13:34:42;;;;;;;1999.90;999.90;;;;;;;;;;4998462;28;20129;-69
2023/01/30 13:37:11;;;;;;;1999.90;999.90;;;;;;;;;;4997276;28;20078;-70
2023/01/30 13:39:42;;;;;;;1999.90;999.90;;;;;;;;;;4997840;28;20060;-70
2023/01/30 13:42:15;;;;;;;1999.90;999.90;;;;;;;;;;4998914;28;20129;-69
2023/01/30 13:44:43;;;;;;;1999.90;999.90;;;;;;;;;;4993746;28;20082;-71
2023/01/30 13:47:19;;;;;;;1999.90;999.90;;;;;;;;;;4996597;28;20546;-70
2023/01/30 13:49:52;;;;;;;1999.90;999.90;;;;;;;;;;4995965;28;20138;-71
2023/01/30 13:52:24;;;;;;;1999.90;999.90;;;;;;;;;;4995278;28;20134;-70
2023/01/30 13:54:57;;;;;;;1999.90;999.90;;;;;;;;;;4996828;28;20470;-71
2023/01/30 13:57:31;;;;;;;1999.90;999.90;;;;;;;;;;4993259;28;20078;-71
2023/01/30 14:00:10;;;;;;;1999.90;999.90;;;;;;;;;;4994557;28;20133;-70
2023/01/30 14:02:37;;;;;;;1999.90;999.90;;;;;;;;;;4995550;28;20129;-71